Time;durP1;ratioP1;P1;durP2;ratioP2;P2;SDS_P1;SDS_P2;PMS_P1;PMS_P2;Temp;Humidity;BMP_temperature;BMP_pressure;BME280_temperature;BME280_humidity;BME280_pressure;Samples;Min_cycle;Max_cycle;Signal;HPM_P1;HPM_P2
2022/03/21 00:01:51;;;;;;;63.63;36.83;;;4.00;99.90;;;;;;4999511;28;20048;-81
2022/03/21 00:04:18;;;;;;;59.92;36.70;;;4.00;99.90;;;;;;4999304;28;20054;-80
2022/03/21 00:06:44;;;;;;;57.72;37.65;;;4.00;99.90;;;;;;4999553;28;20121;-80
2022/03/21 00:09:09;;;;;;;58.88;35.55;;;4.00;99.90;;;;;;4999190;28;20521;-80
2022/03/21 00:11:35;;;;;;;66.55;36.80;;;4.00;99.90;;;;;;4999297;28;20129;-80
2022/03/21 00:14:01;;;;;;;67.70;39.65;;;3.90;99.90;;;;;;4999256;28;20045;-81
2022/03/21 00:16:27;;;;;;;61.20;35.85;;;3.90;99.90;;;;;;4999083;28;20057;-81
2022/03/21 00:18:53;;;;;;;66.43;37.42;;;4.00;99.90;;;;;;4999106;28;20120;-81
2022/03/21 00:21:19;;;;;;;66.93;39.40;;;4.00;99.90;;;;;;4999029;28;20050;-80
2022/03/21 00:23:46;;;;;;;60.30;35.72;;;4.00;99.90;;;;;;4998897;28;20049;-80
2022/03/21 00:26:12;;;;;;;64.10;37.53;;;4.00;99.90;;;;;;4999026;28;20429;-80
2022/03/21 00:28:38;;;;;;;65.28;37.40;;;4.00;99.90;;;;;;5016436;28;20501;-81
2022/03/21 00:31:04;;;;;;;65.03;36.85;;;4.00;99.90;;;;;;4998981;28;20052;-80
2022/03/21 00:33:30;;;;;;;63.95;37.55;;;4.00;99.90;;;;;;4999013;28;20054;-80
2022/03/21 00:35:58;;;;;;;65.25;38.53;;;4.00;99.90;;;;;;4999018;28;20046;-80
2022/03/21 00:38:24;;;;;;;65.90;37.92;;;4.00;99.90;;;;;;4999156;28;20046;-80
2022/03/21 00:40:50;;;;;;;60.63;36.58;;;4.00;99.90;;;;;;4998697;28;20045;-80
2022/03/21 00:43:23;;;;;;;70.82;38.92;;;4.10;99.90;;;;;;4998976;28;20045;-80
2022/03/21 00:45:52;;;;;;;64.55;37.53;;;4.10;99.90;;;;;;4998340;28;20037;-80
2022/03/21 00:48:19;;;;;;;67.32;38.42;;;4.10;99.90;;;;;;4998443;28;20042;-80
2022/03/21 00:50:45;;;;;;;61.25;36.63;;;4.10;99.90;;;;;;4998496;28;20069;-80
2022/03/21 00:53:10;;;;;;;70.13;38.95;;;4.10;99.90;;;;;;4998527;28;20054;-80
2022/03/21 00:55:36;;;;;;;69.10;39.47;;;4.10;99.90;;;;;;4998505;28;20136;-80
2022/03/21 00:58:02;;;;;;;67.78;39.00;;;4.10;99.90;;;;;;4998471;28;20091;-80
2022/03/21 01:00:29;;;;;;;65.05;38.08;;;4.10;99.90;;;;;;5016022;28;20057;-81
2022/03/21 01:02:57;;;;;;;69.97;40.60;;;4.10;99.90;;;;;;4998309;28;20053;-80
2022/03/21 01:05:24;;;;;;;68.05;37.40;;;4.10;99.90;;;;;;5015881;28;20050;-80
2022/03/21 01:07:50;;;;;;;65.90;37.88;;;4.10;99.90;;;;;;4998154;28;20048;-80
2022/03/21 01:10:18;;;;;;;60.55;36.33;;;4.00;99.90;;;;;;4998177;28;20049;-80
2022/03/21 01:12:45;;;;;;;66.63;38.85;;;4.10;99.90;;;;;;4998130;28;20049;-81
2022/03/21 01:15:15;;;;;;;73.97;38.60;;;4.10;99.90;;;;;;4997869;28;20054;-80
2022/03/21 01:17:42;;;;;;;69.28;39.58;;;4.00;99.90;;;;;;4998015;28;20585;-80
2022/03/21 01:20:09;;;;;;;67.88;39.15;;;4.00;99.90;;;;;;4998139;28;20107;-80
2022/03/21 01:22:35;;;;;;;63.88;38.05;;;4.00;99.90;;;;;;4998034;28;20046;-81
2022/03/21 01:25:01;;;;;;;64.18;37.72;;;4.00;99.90;;;;;;4998278;28;20061;-80
2022/03/21 01:27:27;;;;;;;64.60;37.17;;;3.90;99.90;;;;;;4998093;28;20042;-81
2022/03/21 01:29:53;;;;;;;66.00;37.05;;;3.90;99.90;;;;;;4998799;28;20156;-81
2022/03/21 01:32:18;;;;;;;63.63;37.22;;;3.90;99.90;;;;;;4997727;28;20054;-81
2022/03/21 01:34:44;;;;;;;69.85;39.03;;;3.90;99.90;;;;;;4997925;28;20604;-81
2022/03/21 01:37:10;;;;;;;63.35;39.30;;;3.80;99.90;;;;;;4997687;28;20397;-81
2022/03/21 01:39:36;;;;;;;69.22;38.25;;;3.80;99.90;;;;;;4997721;28;20060;-81
2022/03/21 01:42:01;;;;;;;69.07;39.05;;;3.90;99.90;;;;;;4997636;28;20085;-81
2022/03/21 01:44:27;;;;;;;74.32;40.05;;;3.80;99.90;;;;;;4997313;28;20140;-81
2022/03/21 01:46:53;;;;;;;69.72;38.83;;;3.80;99.90;;;;;;5015098;28;20050;-81
2022/03/21 01:49:18;;;;;;;63.83;37.97;;;3.80;99.90;;;;;;4997760;28;20054;-81
2022/03/21 01:51:45;;;;;;;65.43;37.53;;;3.80;99.90;;;;;;4997496;28;20053;-81
2022/03/21 01:56:56;;;;;;;65.75;38.22;;;3.70;99.90;;;;;;4996456;28;20054;-81
2022/03/21 01:59:22;;;;;;;66.63;38.28;;;3.70;99.90;;;;;;4997203;28;20060;-81
2022/03/21 02:01:49;;;;;;;66.65;37.55;;;3.70;99.90;;;;;;4997512;28;20042;-81
2022/03/21 02:04:15;;;;;;;69.90;38.20;;;3.60;99.90;;;;;;5014895;28;20084;-81
2022/03/21 02:06:45;;;;;;;66.60;37.58;;;3.60;99.90;;;;;;4997215;28;20069;-81
2022/03/21 02:09:11;;;;;;;62.50;37.45;;;3.60;99.90;;;;;;4997073;28;20046;-81
2022/03/21 02:11:37;;;;;;;67.50;35.97;;;3.60;99.90;;;;;;4996877;28;20042;-80
2022/03/21 02:14:06;;;;;;;72.82;38.90;;;3.60;99.90;;;;;;4996940;28;20064;-81
2022/03/21 02:16:33;;;;;;;72.57;39.38;;;3.60;99.90;;;;;;4996858;28;20125;-81
2022/03/21 02:19:20;;;;;;;73.78;39.13;;;3.70;99.90;;;;;;4997230;28;20065;-81
2022/03/21 02:21:57;;;;;;;73.78;39.83;;;3.60;99.90;;;;;;4996062;28;20143;-80
2022/03/21 02:24:50;;;;;;;67.97;39.30;;;3.70;99.90;;;;;;4997036;28;20061;-81
2022/03/21 02:27:19;;;;;;;69.20;39.10;;;3.60;99.90;;;;;;4996947;28;20042;-81
2022/03/21 02:29:48;;;;;;;67.60;38.00;;;3.60;99.90;;;;;;4997091;28;20046;-81
2022/03/21 02:32:14;;;;;;;69.63;38.03;;;3.60;99.90;;;;;;4996793;28;20038;-83
2022/03/21 02:34:40;;;;;;;67.75;39.30;;;3.50;99.90;;;;;;4996811;28;20397;-81
2022/03/21 02:37:13;;;;;;;72.05;38.72;;;3.50;99.90;;;;;;4996866;28;20030;-81
2022/03/21 02:39:39;;;;;;;71.25;39.90;;;3.50;99.90;;;;;;4997159;28;20054;-81
2022/03/21 02:42:05;;;;;;;67.30;36.25;;;3.40;99.90;;;;;;4996606;28;20046;-80
2022/03/21 02:44:35;;;;;;;69.30;38.75;;;3.40;99.90;;;;;;4996772;28;20042;-80
2022/03/21 02:47:02;;;;;;;76.53;39.50;;;3.40;99.90;;;;;;4996388;28;20050;-80
2022/03/21 02:49:27;;;;;;;69.88;38.30;;;3.30;99.90;;;;;;4996418;28;20050;-80
2022/03/21 02:51:54;;;;;;;63.72;36.20;;;3.40;99.90;;;;;;4996629;28;20041;-80
2022/03/21 02:54:22;;;;;;;65.20;37.03;;;3.30;99.90;;;;;;4996730;28;20508;-82
2022/03/21 02:56:48;;;;;;;69.97;36.97;;;3.30;99.90;;;;;;4996577;28;20420;-80
2022/03/21 02:59:16;;;;;;;69.40;38.33;;;3.20;99.90;;;;;;4996680;28;20054;-80
2022/03/21 03:01:42;;;;;;;62.20;35.60;;;3.20;99.90;;;;;;5013991;28;20046;-80
2022/03/21 03:04:08;;;;;;;74.45;40.95;;;3.20;99.90;;;;;;4996698;28;20397;-80
2022/03/21 03:06:34;;;;;;;64.90;37.13;;;3.20;99.90;;;;;;4996485;28;20400;-80
2022/03/21 03:09:00;;;;;;;64.28;37.03;;;3.10;99.90;;;;;;5013672;28;20048;-82
2022/03/21 03:11:25;;;;;;;72.18;38.53;;;3.10;99.90;;;;;;4996236;28;20045;-81
2022/03/21 03:13:51;;;;;;;66.57;36.05;;;3.10;99.90;;;;;;4996299;28;20053;-81
2022/03/21 03:16:17;;;;;;;59.92;34.78;;;3.10;99.90;;;;;;4995951;28;20050;-81
2022/03/21 03:18:44;;;;;;;68.07;37.10;;;3.00;99.90;;;;;;4996309;28;20108;-81
2022/03/21 03:21:13;;;;;;;63.33;36.00;;;3.00;99.90;;;;;;4996436;28;20052;-81
2022/03/21 03:23:41;;;;;;;67.88;37.10;;;3.00;99.90;;;;;;4996419;28;20168;-81
2022/03/21 03:26:07;;;;;;;67.38;37.45;;;3.00;99.90;;;;;;4996422;28;20482;-81
2022/03/21 03:28:33;;;;;;;67.05;36.03;;;3.00;99.90;;;;;;4996661;28;20054;-81
2022/03/21 03:31:00;;;;;;;65.05;36.25;;;3.00;99.90;;;;;;4996009;28;20046;-81
2022/03/21 03:33:27;;;;;;;66.22;35.97;;;3.00;99.90;;;;;;4996006;28;20065;-81
2022/03/21 03:35:53;;;;;;;64.35;35.47;;;3.00;99.90;;;;;;4996084;28;20054;-81
2022/03/21 03:38:19;;;;;;;70.00;35.80;;;3.00;99.90;;;;;;4996262;28;20045;-80
2022/03/21 03:40:46;;;;;;;64.82;33.90;;;3.00;99.90;;;;;;5013507;28;20069;-80
2022/03/21 03:43:15;;;;;;;63.20;33.95;;;2.90;99.90;;;;;;5014208;28;20081;-80
2022/03/21 03:45:42;;;;;;;63.28;33.42;;;2.90;99.90;;;;;;4996182;28;20057;-80
2022/03/21 03:48:08;;;;;;;58.67;32.30;;;2.90;99.90;;;;;;5013337;28;20392;-80
2022/03/21 03:50:34;;;;;;;66.43;34.40;;;3.00;99.90;;;;;;5013386;28;20046;-80
2022/03/21 03:53:00;;;;;;;68.28;35.50;;;2.90;99.90;;;;;;5013482;28;20049;-79
2022/03/21 03:55:26;;;;;;;63.70;34.95;;;2.90;99.90;;;;;;4995742;28;20046;-80
2022/03/21 03:57:53;;;;;;;66.88;33.83;;;2.90;99.90;;;;;;4995976;28;20108;-80
2022/03/21 04:00:18;;;;;;;66.28;36.83;;;2.90;99.90;;;;;;5013263;28;20467;-80
2022/03/21 04:05:29;;;;;;;65.68;32.55;;;2.90;99.90;;;;;;5013358;28;20448;-80
2022/03/21 04:07:55;;;;;;;61.08;34.05;;;2.90;99.90;;;;;;4995938;28;20057;-80
2022/03/21 04:10:21;;;;;;;62.15;32.53;;;2.90;99.90;;;;;;4995552;28;20405;-82
2022/03/21 04:12:48;;;;;;;65.80;33.00;;;2.90;99.90;;;;;;4995851;28;20041;-79
2022/03/21 04:15:16;;;;;;;58.63;31.83;;;2.90;99.90;;;;;;5012977;28;20054;-81
2022/03/21 04:17:42;;;;;;;59.20;33.05;;;2.90;99.90;;;;;;5013213;28;20049;-81
2022/03/21 04:20:08;;;;;;;59.17;31.60;;;2.90;99.90;;;;;;4996547;28;20038;-82
2022/03/21 04:22:35;;;;;;;60.70;32.70;;;2.90;99.90;;;;;;4999151;28;20379;-82
2022/03/21 04:25:03;;;;;;;57.63;31.45;;;2.90;99.90;;;;;;4998981;28;20389;-82
2022/03/21 04:27:28;;;;;;;53.97;30.98;;;2.90;99.90;;;;;;4999160;28;20046;-82
2022/03/21 04:29:54;;;;;;;54.00;30.08;;;2.90;99.90;;;;;;5016677;28;20119;-82
2022/03/21 04:32:19;;;;;;;62.25;29.85;;;2.90;99.90;;;;;;4999036;28;20049;-81
2022/03/21 04:34:45;;;;;;;58.30;28.38;;;2.90;99.90;;;;;;5016514;28;20038;-81
2022/03/21 04:37:11;;;;;;;49.78;26.48;;;2.90;99.90;;;;;;4998984;28;20068;-81
2022/03/21 04:39:36;;;;;;;54.92;27.90;;;2.90;99.90;;;;;;4998740;28;20078;-81
2022/03/21 04:42:02;;;;;;;57.22;28.10;;;2.90;99.90;;;;;;4998732;28;20136;-82
2022/03/21 04:44:28;;;;;;;53.85;28.77;;;2.90;99.90;;;;;;4998719;28;20048;-81
2022/03/21 04:46:54;;;;;;;51.60;27.42;;;2.90;99.90;;;;;;4998700;28;20038;-81
2022/03/21 04:49:19;;;;;;;55.10;28.88;;;2.90;99.90;;;;;;4998559;28;20088;-81
2022/03/21 04:51:45;;;;;;;56.83;27.70;;;2.90;99.90;;;;;;4998713;28;20081;-81
2022/03/21 04:54:10;;;;;;;53.33;29.15;;;2.80;99.90;;;;;;4998374;28;20552;-81
2022/03/21 04:56:36;;;;;;;57.65;30.55;;;2.90;99.90;;;;;;4999091;28;20048;-81
2022/03/21 04:59:02;;;;;;;54.47;27.25;;;2.80;99.90;;;;;;4998715;28;20057;-81
2022/03/21 05:01:28;;;;;;;51.17;26.67;;;2.80;99.90;;;;;;4998706;28;20108;-81
2022/03/21 05:03:53;;;;;;;49.22;26.15;;;2.80;99.90;;;;;;4998689;28;20362;-82
2022/03/21 05:06:19;;;;;;;49.28;26.08;;;2.80;99.90;;;;;;4998427;28;20053;-81
2022/03/21 05:08:45;;;;;;;51.63;25.67;;;2.70;99.90;;;;;;4998114;28;20045;-81
2022/03/21 05:11:10;;;;;;;49.10;25.95;;;2.70;99.90;;;;;;4998255;28;20084;-81
2022/03/21 05:13:37;;;;;;;46.08;24.88;;;2.70;99.90;;;;;;4998191;28;20049;-81
2022/03/21 05:16:05;;;;;;;48.58;25.48;;;2.70;99.90;;;;;;4997920;28;20057;-81
2022/03/21 05:18:34;;;;;;;56.75;26.88;;;2.70;99.90;;;;;;4998085;28;20049;-81
2022/03/21 05:21:01;;;;;;;52.90;26.25;;;2.70;99.90;;;;;;4998203;28;20046;-81
2022/03/21 05:31:39;;;;;;;46.92;25.55;;;2.60;99.90;;;;;;4996300;28;20399;-82
2022/03/21 05:36:49;;;;;;;50.58;25.38;;;2.60;99.90;;;;;;5014984;28;20045;-82
2022/03/21 05:39:14;;;;;;;46.42;23.90;;;2.60;99.90;;;;;;4997607;28;20410;-82
2022/03/21 05:41:40;;;;;;;42.83;23.67;;;2.60;99.90;;;;;;4997701;28;20052;-82
2022/03/21 05:44:07;;;;;;;47.65;25.17;;;2.60;99.90;;;;;;4997656;28;20393;-82
2022/03/21 05:46:33;;;;;;;49.28;24.98;;;2.60;99.90;;;;;;4997561;28;20124;-82
2022/03/21 05:48:59;;;;;;;47.85;24.65;;;2.60;99.90;;;;;;4997364;28;20473;-82
2022/03/21 05:51:34;;;;;;;46.88;23.67;;;2.60;99.90;;;;;;4997555;28;20088;-82
2022/03/21 05:54:05;;;;;;;45.67;24.83;;;2.60;99.90;;;;;;4997241;28;20053;-82
2022/03/21 05:56:32;;;;;;;45.13;23.65;;;2.60;99.90;;;;;;4997227;28;20046;-81
2022/03/21 06:00:20;;;;;;;43.33;23.27;;;2.60;99.90;;;;;;4997377;28;20137;-81
2022/03/21 06:01:51;;;;;;;47.60;23.95;;;2.60;99.90;;;;;;4997298;28;20148;-81
2022/03/21 06:04:17;;;;;;;46.85;23.60;;;2.60;99.90;;;;;;4996984;28;20046;-82
2022/03/21 06:06:44;;;;;;;54.80;24.60;;;2.60;99.90;;;;;;4996938;28;20507;-82
2022/03/21 06:09:10;;;;;;;44.28;24.17;;;2.60;99.90;;;;;;4996832;28;20048;-81
2022/03/21 06:11:36;;;;;;;46.50;24.35;;;2.70;99.90;;;;;;4997067;28;20052;-81
2022/03/21 06:14:04;;;;;;;46.10;23.48;;;2.70;99.90;;;;;;5014451;28;20096;-82
2022/03/21 06:16:33;;;;;;;43.55;22.80;;;2.70;99.90;;;;;;5014152;28;20402;-82
2022/03/21 06:19:00;;;;;;;42.65;23.33;;;2.80;99.90;;;;;;4996912;28;20046;-81
2022/03/21 06:21:29;;;;;;;44.50;22.60;;;2.80;99.90;;;;;;4996888;28;20049;-82
2022/03/21 06:23:55;;;;;;;44.70;22.95;;;2.90;99.90;;;;;;4996995;28;20140;-81
2022/03/21 06:26:21;;;;;;;45.30;24.35;;;2.90;99.90;;;;;;5014490;28;20541;-82
2022/03/21 06:28:47;;;;;;;42.83;23.65;;;3.00;99.90;;;;;;4996557;28;20137;-82
2022/03/21 06:31:13;;;;;;;50.05;24.50;;;3.00;99.90;;;;;;4996871;28;20046;-81
2022/03/21 06:33:40;;;;;;;46.35;22.83;;;3.10;99.90;;;;;;4996823;28;20490;-82
2022/03/21 06:36:06;;;;;;;45.53;23.60;;;3.20;99.90;;;;;;4996936;28;20042;-82
2022/03/21 06:38:32;;;;;;;45.42;24.45;;;3.30;99.90;;;;;;4996466;28;20081;-82
2022/03/21 06:40:58;;;;;;;52.38;25.35;;;3.30;99.90;;;;;;5014016;28;20077;-82
2022/03/21 06:43:26;;;;;;;50.60;26.75;;;3.40;99.90;;;;;;4995938;28;20057;-82
2022/03/21 06:45:52;;;;;;;62.10;31.65;;;3.50;99.90;;;;;;4996323;28;20103;-82
2022/03/21 06:48:19;;;;;;;100.28;46.17;;;3.50;99.90;;;;;;4996136;28;20113;-82
2022/03/21 06:50:46;;;;;;;79.78;41.17;;;3.60;99.90;;;;;;4996176;28;20049;-82
2022/03/21 06:53:13;;;;;;;62.90;35.10;;;3.70;99.90;;;;;;4996160;28;20125;-82
2022/03/21 06:55:39;;;;;;;55.78;28.08;;;3.80;99.90;;;;;;4996155;28;20096;-82
2022/03/21 06:58:06;;;;;;;50.47;27.90;;;3.90;99.90;;;;;;4996417;28;20056;-81
2022/03/21 07:00:32;;;;;;;58.97;32.63;;;3.90;99.90;;;;;;4996350;28;20038;-83
2022/03/21 07:02:57;;;;;;;56.35;30.55;;;4.00;99.90;;;;;;4996115;28;20052;-84
2022/03/21 07:05:26;;;;;;;51.33;28.10;;;4.10;99.90;;;;;;4996114;28;20041;-83
2022/03/21 07:07:52;;;;;;;45.88;25.75;;;4.20;99.90;;;;;;4996349;28;20120;-82
2022/03/21 07:10:18;;;;;;;41.15;25.88;;;4.30;99.90;;;;;;4996025;28;20050;-82
2022/03/21 07:12:43;;;;;;;46.08;26.02;;;4.30;99.90;;;;;;4996164;28;20124;-81
2022/03/21 07:15:09;;;;;;;52.92;27.90;;;4.40;99.90;;;;;;4996015;28;20056;-82
2022/03/21 07:17:35;;;;;;;55.65;29.52;;;4.50;99.90;;;;;;4992180;28;20057;-81
2022/03/21 07:20:00;;;;;;;48.97;26.52;;;4.60;99.90;;;;;;4984778;28;20047;-81
2022/03/21 07:22:26;;;;;;;48.13;27.20;;;4.70;99.90;;;;;;4976643;28;20085;-82
2022/03/21 07:24:54;;;;;;;45.22;25.08;;;4.90;99.90;;;;;;4976363;28;20120;-82
2022/03/21 07:27:20;;;;;;;48.08;27.20;;;5.00;99.90;;;;;;4993911;28;20081;-79
2022/03/21 07:29:46;;;;;;;50.70;27.65;;;5.10;99.90;;;;;;4994202;28;20509;-81
2022/03/21 07:32:11;;;;;;;46.17;27.42;;;5.20;99.90;;;;;;4976104;28;20050;-81
2022/03/21 07:34:37;;;;;;;51.33;28.85;;;5.30;99.90;;;;;;4993557;28;20042;-81
2022/03/21 07:37:03;;;;;;;48.63;27.27;;;5.40;99.90;;;;;;4976217;28;20054;-80
2022/03/21 07:39:29;;;;;;;51.67;28.90;;;5.50;99.90;;;;;;4976313;28;20089;-82
2022/03/21 07:42:00;;;;;;;46.65;28.10;;;5.60;99.90;;;;;;4993639;28;20053;-81
2022/03/21 07:47:17;;;;;;;52.15;30.42;;;5.80;99.90;;;;;;4976019;28;20042;-80
2022/03/21 07:49:55;;;;;;;45.70;26.63;;;6.00;99.90;;;;;;4993570;28;20046;-82
2022/03/21 07:52:22;;;;;;;45.88;26.65;;;6.10;99.90;;;;;;4976378;28;20054;-81
2022/03/21 07:54:53;;;;;;;44.40;26.83;;;6.30;99.90;;;;;;4976441;28;20114;-81
2022/03/21 07:57:29;;;;;;;42.67;25.73;;;6.40;99.90;;;;;;4997439;28;20117;-81
2022/03/21 07:59:55;;;;;;;38.88;23.23;;;6.40;99.90;;;;;;4980137;28;20042;-79
2022/03/21 08:02:21;;;;;;;43.67;25.13;;;6.60;99.90;;;;;;4979656;28;20126;-80
2022/03/21 08:04:48;;;;;;;43.05;25.30;;;6.70;99.90;;;;;;4979776;28;20564;-81
2022/03/21 08:07:17;;;;;;;42.78;25.75;;;6.80;99.90;;;;;;4979639;28;20084;-79
2022/03/21 08:09:43;;;;;;;45.60;27.48;;;7.00;99.90;;;;;;4979473;28;20635;-81
2022/03/21 08:12:09;;;;;;;42.90;27.30;;;7.10;99.90;;;;;;4979606;28;20182;-79
2022/03/21 08:14:35;;;;;;;39.22;25.17;;;7.30;99.90;;;;;;4996593;28;20084;-80
2022/03/21 08:17:02;;;;;;;48.13;27.50;;;7.40;99.90;;;;;;4991939;28;20493;-81
2022/03/21 08:19:29;;;;;;;43.92;27.23;;;7.60;99.90;;;;;;4998763;28;20053;-80
2022/03/21 08:21:55;;;;;;;44.38;26.58;;;7.80;99.90;;;;;;4998203;28;20116;-80
2022/03/21 08:24:21;;;;;;;41.55;26.58;;;7.90;99.90;;;;;;4998860;28;20132;-80
2022/03/21 08:26:47;;;;;;;43.85;27.20;;;8.00;99.90;;;;;;4998154;28;20049;-80
2022/03/21 08:29:13;;;;;;;44.60;27.10;;;8.10;99.90;;;;;;4998494;28;20046;-80
2022/03/21 08:31:39;;;;;;;43.38;27.50;;;8.20;99.90;;;;;;4998545;28;20038;-81
2022/03/21 08:34:04;;;;;;;41.97;26.20;;;8.40;99.90;;;;;;4997966;28;20132;-80
2022/03/21 08:36:31;;;;;;;47.40;27.02;;;8.50;99.90;;;;;;4998416;28;20042;-80
2022/03/21 08:38:57;;;;;;;38.55;25.05;;;8.60;99.90;;;;;;4998227;28;20544;-80
2022/03/21 08:41:23;;;;;;;43.47;25.05;;;8.80;99.90;;;;;;5016163;28;20493;-81
2022/03/21 08:43:49;;;;;;;38.38;22.58;;;8.90;99.90;;;;;;4998682;28;20046;-80
2022/03/21 08:46:14;;;;;;;32.30;21.15;;;9.10;99.90;;;;;;4997805;28;20405;-80
2022/03/21 08:51:24;;;;;;;37.72;22.67;;;9.40;99.90;;;;;;5015656;28;20096;-80
2022/03/21 08:53:50;;;;;;;40.63;23.77;;;9.50;99.90;;;;;;5015586;28;20046;-80
2022/03/21 08:56:17;;;;;;;35.38;20.73;;;9.70;99.90;;;;;;4998109;28;20096;-79
2022/03/21 08:58:43;;;;;;;39.42;23.55;;;9.80;99.90;;;;;;4998217;28;20048;-80
2022/03/21 09:01:08;;;;;;;36.50;20.88;;;9.80;99.90;;;;;;4998012;28;20081;-80
2022/03/21 09:03:34;;;;;;;35.47;22.90;;;9.90;99.90;;;;;;4997405;28;20097;-80
2022/03/21 09:06:00;;;;;;;40.13;24.08;;;10.10;99.90;;;;;;4997933;28;20473;-80
2022/03/21 09:08:25;;;;;;;37.97;23.42;;;10.20;99.90;;;;;;4997310;28;20038;-80
2022/03/21 09:10:52;;;;;;;36.75;23.08;;;10.40;99.90;;;;;;5004567;28;20100;-79
2022/03/21 09:13:18;;;;;;;37.25;23.58;;;10.50;99.90;;;;;;5002372;28;20050;-79
2022/03/21 09:15:44;;;;;;;37.45;23.27;;;10.60;99.90;;;;;;5012831;28;20366;-80
2022/03/21 09:18:09;;;;;;;34.20;22.25;;;10.70;99.90;;;;;;5007672;28;20050;-80
2022/03/21 09:20:35;;;;;;;35.92;22.55;;;10.90;99.90;;;;;;4997808;28;20054;-80
2022/03/21 09:23:01;;;;;;;39.20;23.50;;;11.00;99.90;;;;;;4997376;28;20046;-81
2022/03/21 09:25:27;;;;;;;32.00;21.73;;;11.20;99.90;;;;;;4997506;28;20472;-81
2022/03/21 09:27:52;;;;;;;34.33;22.08;;;11.30;99.90;;;;;;5015967;28;20061;-81
2022/03/21 09:30:18;;;;;;;35.47;22.38;;;11.30;99.90;;;;;;4996772;28;20076;-81
2022/03/21 09:32:44;;;;;;;34.72;22.02;;;11.40;99.90;;;;;;4997351;28;20052;-81
2022/03/21 09:35:12;;;;;;;33.88;20.88;;;11.40;99.90;;;;;;4997033;28;20046;-80
2022/03/21 09:37:37;;;;;;;33.33;21.30;;;11.50;99.90;;;;;;4997306;28;20050;-80
2022/03/21 09:40:03;;;;;;;34.28;21.60;;;11.70;99.90;;;;;;5013694;28;20053;-80
2022/03/21 09:42:29;;;;;;;38.08;20.15;;;11.70;99.90;;;;;;4993447;28;20095;-80
2022/03/21 09:44:55;;;;;;;35.00;22.33;;;11.80;99.90;;;;;;5007090;28;20116;-80
2022/03/21 09:50:10;;;;;;;33.13;20.88;;;12.10;99.90;;;;;;5014872;28;20512;-81
2022/03/21 09:52:37;;;;;;;31.75;20.45;;;12.20;99.90;;;;;;4996833;28;20038;-80
2022/03/21 09:55:03;;;;;;;33.25;20.77;;;12.20;99.90;;;;;;4996720;28;20409;-83
2022/03/21 09:57:28;;;;;;;34.53;20.75;;;12.20;99.90;;;;;;4995111;28;20042;-80
2022/03/21 09:59:57;;;;;;;34.58;19.45;;;12.40;99.90;;;;;;4995564;28;20060;-84
2022/03/21 10:02:22;;;;;;;29.13;17.77;;;12.40;99.90;;;;;;4995617;28;20104;-80
2022/03/21 10:04:48;;;;;;;30.33;18.75;;;12.50;99.90;;;;;;4993594;28;20049;-83
2022/03/21 10:07:16;;;;;;;37.28;20.52;;;12.50;99.90;;;;;;4993237;28;20473;-87
2022/03/21 10:09:42;;;;;;;28.50;17.75;;;12.60;99.90;;;;;;4992465;28;20050;-81
2022/03/21 10:12:11;;;;;;;28.58;19.08;;;12.70;99.90;;;;;;4993511;28;20077;-81
2022/03/21 10:14:41;;;;;;;31.23;19.70;;;12.90;99.90;;;;;;4996128;28;20136;-85
2022/03/21 10:17:14;;;;;;;29.38;18.92;;;13.00;99.90;;;;;;5010018;28;20406;-81
2022/03/21 10:19:45;;;;;;;31.45;18.98;;;12.90;99.50;;;;;;5015380;28;20045;-82
2022/03/21 10:22:23;;;;;;;25.60;16.45;;;13.00;98.70;;;;;;5015814;28;20096;-78
2022/03/21 10:24:50;;;;;;;24.15;16.20;;;13.00;99.90;;;;;;5014148;28;20088;-80
2022/03/21 10:27:31;;;;;;;23.30;15.60;;;13.20;99.50;;;;;;5015825;28;20124;-85
2022/03/21 10:30:13;;;;;;;21.27;14.00;;;13.40;99.40;;;;;;5010418;23;20073;-87
2022/03/21 10:32:56;;;;;;;19.85;11.65;;;13.60;94.70;;;;;;4956633;28;20050;-84
2022/03/21 10:35:28;;;;;;;22.70;14.13;;;13.70;87.90;;;;;;4938211;29;20050;-80
2022/03/21 10:37:59;;;;;;;22.25;14.40;;;13.70;90.40;;;;;;4955548;29;20061;-80
2022/03/21 10:40:40;;;;;;;21.50;14.23;;;13.80;89.60;;;;;;4938147;29;20200;-81
2022/03/21 10:43:12;;;;;;;20.05;14.32;;;14.00;86.50;;;;;;4937837;29;20054;-81
2022/03/21 10:45:54;;;;;;;22.50;15.23;;;14.10;93.20;;;;;;4938585;29;20074;-81
2022/03/21 10:48:22;;;;;;;20.63;13.52;;;14.00;82.00;;;;;;4937976;29;20055;-81
2022/03/21 10:50:53;;;;;;;21.45;14.18;;;14.00;88.20;;;;;;4938208;29;20086;-81
2022/03/21 10:53:48;;;;;;;23.95;15.88;;;14.00;82.70;;;;;;4938054;29;20186;-84
2022/03/21 10:56:14;;;;;;;27.45;16.80;;;14.10;80.50;;;;;;4898613;29;20056;-84
2022/03/21 10:59:02;;;;;;;26.00;16.67;;;14.10;83.80;;;;;;4898356;29;20139;-82
2022/03/21 11:01:29;;;;;;;27.25;16.00;;;14.10;85.10;;;;;;4938794;29;20066;-83
2022/03/21 11:03:59;;;;;;;24.23;16.13;;;14.30;80.90;;;;;;4938540;29;20050;-86
2022/03/21 11:06:27;;;;;;;25.95;16.73;;;14.40;86.30;;;;;;4938172;29;20051;-83
2022/03/21 11:08:54;;;;;;;26.27;17.70;;;14.60;91.50;;;;;;4955449;29;20047;-83
2022/03/21 11:11:26;;;;;;;26.85;17.88;;;14.60;81.20;;;;;;4937936;29;20050;-82
2022/03/21 11:13:55;;;;;;;27.23;18.40;;;14.50;76.10;;;;;;4954910;29;20138;-80
2022/03/21 11:16:21;;;;;;;25.85;17.20;;;14.70;83.90;;;;;;4938036;29;20506;-81
2022/03/21 11:18:59;;;;;;;24.35;15.48;;;14.80;81.80;;;;;;4938108;29;20125;-81
2022/03/21 11:21:28;;;;;;;25.30;16.50;;;14.90;78.00;;;;;;4938483;29;20055;-82
2022/03/21 11:23:54;;;;;;;27.13;18.10;;;15.10;83.20;;;;;;4937980;29;20048;-83
2022/03/21 11:26:23;;;;;;;26.85;15.82;;;15.10;82.90;;;;;;4940265;28;20203;-82
2022/03/21 11:28:54;;;;;;;26.15;15.85;;;15.10;73.50;;;;;;4956072;28;20490;-82
2022/03/21 11:31:26;;;;;;;23.88;15.65;;;15.00;73.40;;;;;;4960775;28;20130;-80
2022/03/21 11:34:27;;;;;;;23.08;14.57;;;15.20;74.40;;;;;;4961016;28;20133;-83
2022/03/21 11:36:56;;;;;;;23.65;15.30;;;15.20;69.70;;;;;;4960781;28;20050;-89
2022/03/21 11:39:23;;;;;;;24.30;16.73;;;15.30;75.00;;;;;;4961763;28;20043;-82
2022/03/21 11:42:01;;;;;;;24.95;17.15;;;15.30;72.90;;;;;;4979992;28;20042;-84
2022/03/21 11:44:27;;;;;;;22.35;15.60;;;15.30;66.40;;;;;;4980361;28;20076;-82
2022/03/21 11:46:53;;;;;;;24.48;16.20;;;15.30;71.60;;;;;;4976274;28;20086;-84
2022/03/21 11:49:21;;;;;;;28.65;16.25;;;15.30;68.90;;;;;;4976341;28;20042;-84
2022/03/21 11:51:55;;;;;;;24.70;17.02;;;15.30;72.80;;;;;;4976719;28;20465;-83
2022/03/21 11:54:36;;;;;;;24.88;15.57;;;15.50;66.10;;;;;;4977552;28;20050;-81
2022/03/21 11:57:07;;;;;;;22.23;14.93;;;15.50;74.40;;;;;;4976643;28;20071;-77
2022/03/21 11:59:33;;;;;;;24.77;15.07;;;15.60;72.00;;;;;;4977576;28;20043;-80
2022/03/21 12:02:22;;;;;;;24.02;15.35;;;15.50;67.40;;;;;;4977409;28;20046;-79
2022/03/21 12:05:06;;;;;;;23.75;14.70;;;15.40;65.50;;;;;;4977105;28;20465;-79
2022/03/21 12:07:35;;;;;;;23.20;14.38;;;15.40;65.30;;;;;;4976470;28;20130;-79
2022/03/21 12:10:01;;;;;;;23.10;15.23;;;15.30;65.80;;;;;;4976387;28;20153;-79
2022/03/21 12:12:39;;;;;;;22.25;14.93;;;15.20;63.80;;;;;;4975981;28;20043;-83
2022/03/21 12:15:31;;;;;;;22.08;14.77;;;15.20;61.80;;;;;;4976444;28;20474;-88
2022/03/21 12:17:57;;;;;;;26.05;14.15;;;15.30;69.00;;;;;;4966072;28;20495;-82
2022/03/21 12:20:23;;;;;;;22.63;14.85;;;15.50;65.90;;;;;;4977385;28;20101;-83
2022/03/21 12:23:00;;;;;;;24.55;15.13;;;15.50;69.10;;;;;;4976159;28;20053;-83
2022/03/21 12:25:29;;;;;;;23.42;14.38;;;15.40;64.10;;;;;;4976310;28;20053;-83
2022/03/21 12:30:29;;;;;;;20.27;14.57;;;15.50;65.70;;;;;;5034358;28;20056;-80
2022/03/21 12:33:10;;;;;;;24.67;15.43;;;15.50;61.00;;;;;;5004758;23;20058;-80
2022/03/21 12:35:39;;;;;;;23.00;15.75;;;15.50;62.10;;;;;;4995151;28;20108;-80
2022/03/21 12:38:12;;;;;;;23.88;15.77;;;15.50;61.50;;;;;;4995025;28;20055;-80
2022/03/21 12:43:15;;;;;;;23.38;15.75;;;15.70;68.60;;;;;;5085309;23;20058;-82
2022/03/21 12:46:07;;;;;;;21.80;15.48;;;15.80;66.60;;;;;;4994918;28;20105;-78
2022/03/21 12:48:58;;;;;;;24.27;17.33;;;15.70;59.90;;;;;;4995017;28;20042;-78
2022/03/21 12:51:29;;;;;;;23.25;15.23;;;15.40;56.20;;;;;;5034560;23;20053;-82
2022/03/21 12:54:14;;;;;;;24.83;16.92;;;15.30;59.60;;;;;;4998292;28;20085;-82
2022/03/21 12:56:39;;;;;;;23.45;16.02;;;15.40;63.00;;;;;;4998664;28;20493;-80
2022/03/21 12:59:10;;;;;;;25.63;18.60;;;15.60;70.00;;;;;;4998463;28;20056;-79
2022/03/21 13:01:42;;;;;;;23.25;14.95;;;15.80;67.00;;;;;;5005650;23;20054;-80
2022/03/21 13:13:41;;;;;;;25.60;16.67;;;15.70;61.30;;;;;;4998176;28;20054;-81
2022/03/21 13:16:09;;;;;;;24.90;15.85;;;15.80;65.10;;;;;;4998313;28;20057;-80
2022/03/21 13:21:29;;;;;;;;;;;15.80;60.50;;;;;;5003756;23;20058;-80